createdAt,value
2023-06-04T00:00:45.015Z,72.01
2023-06-04T00:01:44.986Z,71.87
2023-06-04T00:02:44.128Z,71.72
2023-06-04T00:03:44.143Z,71.78
2023-06-04T00:04:44.077Z,71.23
2023-06-04T00:05:44.967Z,71.17
2023-06-04T00:06:43.984Z,71.19
2023-06-04T00:07:44.949Z,70.74
2023-06-04T00:08:44.999Z,71.14
2023-06-04T00:09:44.950Z,70.83
2023-06-04T00:10:44.938Z,70.71
2023-06-04T00:11:45.013Z,71.09
2023-06-04T00:12:44.930Z,71.11
2023-06-04T00:13:43.946Z,71.23
2023-06-04T00:14:44.949Z,70.41
2023-06-04T00:15:43.885Z,69.81
2023-06-04T00:16:44.955Z,69.34
2023-06-04T00:17:44.901Z,68.86
2023-06-04T00:18:44.901Z,68.46
2023-06-04T00:19:44.894Z,68.21
2023-06-04T00:20:43.861Z,67.98
2023-06-04T00:21:44.914Z,67.84
2023-06-04T00:22:43.868Z,68.63
2023-06-04T00:23:43.941Z,68.93
2023-06-04T00:24:44.840Z,69.07
2023-06-04T00:25:43.833Z,69.52
2023-06-04T00:26:44.820Z,69.66
2023-06-04T00:27:44.785Z,70.20
2023-06-04T00:28:43.809Z,70.68
2023-06-04T00:29:44.802Z,70.79
2023-06-04T00:30:43.777Z,70.67
2023-06-04T00:31:43.885Z,70.44
2023-06-04T00:32:44.825Z,70.71
2023-06-04T00:33:44.771Z,71.46
2023-06-04T00:34:44.859Z,71.81
2023-06-04T00:35:43.835Z,72.32
2023-06-04T00:36:44.860Z,71.66
2023-06-04T00:37:44.934Z,72.13
2023-06-04T00:38:44.959Z,71.96
2023-06-04T00:39:44.020Z,71.84
2023-06-04T00:40:45.058Z,72.10
2023-06-04T00:41:44.084Z,72.08
2023-06-04T00:42:45.151Z,71.42
2023-06-04T00:43:44.181Z,70.79
2023-06-04T00:44:45.217Z,70.28
2023-06-04T00:45:45.311Z,70.06
2023-06-04T00:46:44.313Z,69.99
2023-06-04T00:47:45.465Z,70.02
2023-06-04T00:48:44.410Z,69.90
2023-06-04T00:49:44.486Z,69.83
2023-06-04T00:50:45.518Z,69.88
2023-06-04T00:51:45.557Z,69.75
2023-06-04T00:52:44.620Z,69.81
2023-06-04T00:53:44.646Z,70.42
2023-06-04T00:54:44.723Z,70.48
2023-06-04T00:55:45.743Z,70.61
2023-06-04T00:56:45.814Z,70.02
2023-06-04T00:57:45.822Z,69.43
2023-06-04T00:58:45.876Z,68.82
2023-06-04T00:59:44.951Z,68.42
2023-06-04T01:00:44.987Z,68.19
2023-06-04T01:01:46.102Z,68.32
2023-06-04T01:02:46.129Z,68.89
2023-06-04T01:03:46.171Z,68.70
2023-06-04T01:04:45.193Z,68.31
2023-06-04T01:05:45.246Z,68.03
2023-06-04T01:06:45.289Z,67.99
2023-06-04T01:07:46.308Z,67.76
2023-06-04T01:08:45.289Z,67.71
2023-06-04T01:09:46.389Z,67.44
2023-06-04T01:10:46.392Z,67.20
2023-06-04T01:11:46.505Z,67.16
2023-06-04T01:12:45.440Z,67.24
2023-06-04T01:13:46.425Z,67.25
2023-06-04T01:14:45.487Z,67.19
2023-06-04T01:15:45.489Z,67.22
2023-06-04T01:16:46.515Z,67.16
2023-06-04T01:17:46.506Z,67.15
2023-06-04T01:18:45.494Z,66.89
2023-06-04T01:19:46.530Z,66.77
2023-06-04T01:20:46.536Z,66.76
2023-06-04T01:21:46.550Z,66.81
2023-06-04T01:22:46.579Z,66.66
2023-06-04T01:23:46.651Z,66.77
2023-06-04T01:24:45.662Z,66.72
2023-06-04T01:25:45.674Z,66.84
2023-06-04T01:26:46.717Z,66.70
2023-06-04T01:27:45.712Z,66.68
2023-06-04T01:28:46.782Z,67.00
2023-06-04T01:29:46.821Z,67.03
2023-06-04T01:30:45.857Z,67.02
2023-06-04T01:31:46.907Z,66.81
2023-06-04T01:32:46.029Z,66.72
2023-06-04T01:33:46.949Z,66.62
2023-06-04T01:34:46.980Z,66.55
2023-06-04T01:35:47.049Z,66.64
2023-06-04T01:36:47.058Z,66.79
2023-06-04T01:37:47.106Z,66.83
2023-06-04T01:38:47.127Z,66.77
2023-06-04T01:39:47.182Z,67.00
2023-06-04T01:40:46.190Z,67.04
2023-06-04T01:41:46.271Z,67.07
2023-06-04T01:42:46.301Z,67.13
2023-06-04T01:43:46.352Z,67.28
2023-06-04T01:44:47.369Z,67.06
2023-06-04T01:45:47.420Z,67.01
2023-06-04T01:46:47.463Z,67.00
2023-06-04T01:47:47.548Z,66.99
2023-06-04T01:48:47.499Z,67.40
2023-06-04T01:49:46.531Z,67.89
2023-06-04T01:50:47.519Z,67.73
2023-06-04T01:51:46.543Z,68.06
2023-06-04T01:52:47.608Z,68.05
2023-06-04T01:53:47.646Z,68.22
2023-06-04T01:54:47.737Z,68.25
2023-06-04T01:55:47.798Z,68.24
2023-06-04T01:56:47.832Z,67.84
2023-06-04T01:57:46.848Z,67.72
2023-06-04T01:58:46.902Z,67.53
2023-06-04T01:59:47.888Z,67.73
2023-06-04T02:00:47.921Z,68.14
2023-06-04T02:01:46.991Z,68.66
2023-06-04T02:02:47.963Z,69.87
2023-06-04T02:03:47.911Z,70.74
2023-06-04T02:04:47.923Z,71.56
2023-06-04T02:05:47.965Z,71.98
2023-06-04T02:06:48.001Z,72.18
2023-06-04T02:07:47.036Z,72.51
2023-06-04T02:08:48.043Z,72.91
2023-06-04T02:09:48.102Z,72.90
2023-06-04T02:10:48.155Z,73.20
2023-06-04T02:11:48.161Z,73.03
2023-06-04T02:12:47.190Z,72.85
2023-06-04T02:13:48.189Z,72.93
2023-06-04T02:14:47.205Z,72.79
2023-06-04T02:15:48.207Z,73.28
2023-06-04T02:16:47.347Z,73.12
2023-06-04T02:17:47.281Z,73.42
2023-06-04T02:18:47.287Z,73.65
2023-06-04T02:19:48.363Z,73.78
2023-06-04T02:20:48.355Z,74.05
2023-06-04T02:21:47.394Z,73.95
2023-06-04T02:22:47.436Z,73.72
2023-06-04T02:23:48.629Z,73.63
2023-06-04T02:24:48.531Z,73.37
2023-06-04T02:25:48.625Z,72.97
2023-06-04T02:26:48.588Z,73.40
2023-06-04T02:27:47.579Z,73.56
2023-06-04T02:28:47.615Z,73.61
2023-06-04T02:29:48.635Z,73.79
2023-06-04T02:30:48.681Z,73.66
2023-06-04T02:31:47.732Z,73.39
2023-06-04T02:32:50.258Z,73.73
2023-06-04T02:33:49.524Z,73.92
2023-06-04T02:34:48.730Z,73.90
2023-06-04T02:35:47.717Z,73.90
2023-06-04T02:36:48.698Z,73.55
2023-06-04T02:37:47.722Z,73.46
2023-06-04T02:38:48.717Z,73.04
2023-06-04T02:39:48.704Z,72.48
2023-06-04T02:40:47.690Z,72.12
2023-06-04T02:41:47.676Z,71.91
2023-06-04T02:42:47.701Z,71.65
2023-06-04T02:43:48.668Z,71.19
2023-06-04T02:44:48.659Z,70.60
2023-06-04T02:45:48.664Z,70.17
2023-06-04T02:46:48.639Z,69.94
2023-06-04T02:47:48.771Z,69.69
2023-06-04T02:48:48.642Z,69.58
2023-06-04T02:49:49.510Z,69.66
2023-06-04T02:50:48.636Z,70.21
2023-06-04T02:51:48.650Z,71.30
2023-06-04T02:52:48.715Z,72.39
2023-06-04T02:53:48.755Z,72.83
2023-06-04T02:54:48.823Z,73.30
2023-06-04T02:55:48.884Z,72.83
2023-06-04T02:56:47.930Z,72.51
2023-06-04T02:57:48.994Z,72.79
2023-06-04T02:58:49.025Z,72.85
2023-06-04T02:59:48.105Z,73.38
2023-06-04T03:00:48.141Z,73.93
2023-06-04T03:01:49.239Z,74.03
2023-06-04T03:02:49.362Z,74.16
2023-06-04T03:03:49.369Z,74.28
2023-06-04T03:04:49.328Z,74.53
2023-06-04T03:05:49.350Z,74.78
2023-06-04T03:06:49.371Z,75.25
2023-06-04T03:07:49.427Z,75.28
2023-06-04T03:08:49.397Z,75.26
2023-06-04T03:09:48.487Z,75.04
2023-06-04T03:10:50.011Z,75.20
2023-06-04T03:11:48.495Z,74.88
2023-06-04T03:12:48.512Z,74.37
2023-06-04T03:13:49.511Z,73.84
2023-06-04T03:14:49.592Z,73.03
2023-06-04T03:15:48.625Z,72.56
2023-06-04T03:16:48.630Z,71.95
2023-06-04T03:17:48.703Z,71.60
2023-06-04T03:18:49.659Z,71.13
2023-06-04T03:19:49.716Z,70.93
2023-06-04T03:20:48.741Z,70.72
2023-06-04T03:21:48.754Z,70.92
2023-06-04T03:22:49.784Z,70.85
2023-06-04T03:23:48.830Z,70.47
2023-06-04T03:24:49.850Z,70.70
2023-06-04T03:25:49.894Z,70.59
2023-06-04T03:26:49.942Z,70.89
2023-06-04T03:27:49.982Z,71.17
2023-06-04T03:28:50.026Z,71.72
2023-06-04T03:29:49.061Z,72.07
2023-06-04T03:30:50.132Z,72.02
2023-06-04T03:31:50.128Z,72.23
2023-06-04T03:32:50.216Z,72.60
2023-06-04T03:33:50.235Z,72.33
2023-06-04T03:34:49.262Z,72.03
2023-06-04T03:35:50.323Z,71.48
2023-06-04T03:36:49.378Z,71.82
2023-06-04T03:37:50.449Z,71.94
2023-06-04T03:38:50.491Z,71.69
2023-06-04T03:39:49.568Z,71.61
2023-06-04T03:40:50.621Z,71.45
2023-06-04T03:41:50.658Z,71.22
2023-06-04T03:42:49.701Z,71.05
2023-06-04T03:43:50.738Z,71.08
2023-06-04T03:44:49.790Z,70.81
2023-06-04T03:45:50.859Z,70.87
2023-06-04T03:46:50.027Z,70.77
2023-06-04T03:47:50.981Z,70.80
2023-06-04T03:48:50.967Z,70.79
2023-06-04T03:49:51.017Z,70.61
2023-06-04T03:50:51.075Z,70.58
2023-06-04T03:51:50.120Z,70.59
2023-06-04T03:52:50.152Z,70.11
2023-06-04T03:53:51.206Z,70.38
2023-06-04T03:54:51.247Z,69.94
2023-06-04T03:55:50.301Z,69.80
2023-06-04T03:56:51.332Z,69.54
2023-06-04T03:57:50.341Z,69.46
2023-06-04T03:58:51.386Z,69.35
2023-06-04T03:59:50.465Z,69.17
2023-06-04T04:00:50.518Z,69.14
2023-06-04T04:01:50.633Z,68.65
2023-06-04T04:02:51.636Z,68.48
2023-06-04T04:03:50.747Z,69.01
2023-06-04T04:04:51.648Z,69.74
2023-06-04T04:05:51.674Z,69.92
2023-06-04T04:06:51.704Z,70.46
2023-06-04T04:07:51.757Z,70.70
2023-06-04T04:08:51.813Z,70.92
2023-06-04T04:09:51.849Z,70.51
2023-06-04T04:10:50.905Z,70.49
2023-06-04T04:11:50.942Z,70.43
2023-06-04T04:12:53.583Z,70.19
2023-06-04T04:13:51.172Z,70.07
2023-06-04T04:14:51.201Z,69.51
2023-06-04T04:15:52.219Z,69.45
2023-06-04T04:16:52.282Z,69.22
2023-06-04T04:17:51.343Z,69.01
2023-06-04T04:18:51.292Z,68.96
2023-06-04T04:19:52.342Z,68.87
2023-06-04T04:20:51.331Z,68.93
2023-06-04T04:21:51.317Z,68.97
2023-06-04T04:22:51.792Z,69.09
2023-06-04T04:23:52.430Z,68.59
2023-06-04T04:24:51.417Z,68.61
2023-06-04T04:25:52.477Z,68.41
2023-06-04T04:26:52.507Z,68.33
2023-06-04T04:27:51.609Z,68.21
2023-06-04T04:28:51.597Z,68.29
2023-06-04T04:29:52.637Z,68.21
2023-06-04T04:30:52.711Z,68.72
2023-06-04T04:31:52.677Z,68.20
2023-06-04T04:32:52.777Z,68.19
2023-06-04T04:33:52.753Z,68.03
2023-06-04T04:34:52.814Z,67.93
2023-06-04T04:35:52.052Z,67.98
2023-06-04T04:36:51.837Z,67.92
2023-06-04T04:37:52.870Z,67.92
2023-06-04T04:38:52.941Z,68.10
2023-06-04T04:39:51.956Z,68.27
2023-06-04T04:40:51.960Z,67.92
2023-06-04T04:41:51.972Z,67.91
2023-06-04T04:42:52.988Z,67.96
2023-06-04T04:43:51.985Z,68.37
2023-06-04T04:44:53.092Z,68.17
2023-06-04T04:45:52.094Z,68.06
2023-06-04T04:46:53.225Z,68.26
2023-06-04T04:47:52.260Z,68.12
2023-06-04T04:48:52.238Z,68.43
2023-06-04T04:49:53.277Z,68.24
2023-06-04T04:50:53.300Z,68.18
2023-06-04T04:51:53.331Z,68.38
2023-06-04T04:52:53.377Z,68.69
2023-06-04T04:53:53.366Z,68.90
2023-06-04T04:54:53.372Z,68.48
2023-06-04T04:55:53.409Z,69.36
2023-06-04T04:57:05.017Z,68.59
2023-06-04T04:57:53.393Z,68.31
2023-06-04T04:58:53.414Z,68.06
2023-06-04T04:59:52.371Z,68.29
2023-06-04T05:00:54.064Z,68.38
2023-06-04T05:01:52.433Z,68.37
2023-06-04T05:02:53.391Z,68.55
2023-06-04T05:03:53.415Z,69.61
2023-06-04T05:04:53.338Z,69.38
2023-06-04T05:05:52.334Z,69.21
2023-06-04T05:06:52.341Z,69.06
2023-06-04T05:07:52.329Z,69.05
2023-06-04T05:08:53.311Z,69.07
2023-06-04T05:09:52.289Z,68.98
2023-06-04T05:10:53.384Z,69.04
2023-06-04T05:11:53.411Z,69.32
2023-06-04T05:12:52.421Z,69.35
2023-06-04T05:13:52.432Z,69.31
2023-06-04T05:14:52.455Z,69.36
2023-06-04T05:15:53.497Z,68.97
2023-06-04T05:16:53.606Z,69.09
2023-06-04T05:17:53.522Z,68.72
2023-06-04T05:18:53.532Z,68.50
2023-06-04T05:19:53.542Z,68.45
2023-06-04T05:20:52.607Z,68.36
2023-06-04T05:21:54.575Z,68.04
2023-06-04T05:22:53.645Z,67.87
2023-06-04T05:23:52.736Z,68.50
2023-06-04T05:24:53.715Z,69.07
2023-06-04T05:25:52.789Z,69.80
2023-06-04T05:26:53.822Z,70.06
2023-06-04T05:27:52.878Z,70.44
2023-06-04T05:28:54.411Z,71.17
2023-06-04T05:29:53.942Z,71.30
2023-06-04T05:30:53.975Z,71.23
2023-06-04T05:31:54.036Z,71.28
2023-06-04T05:32:54.084Z,70.99
2023-06-04T05:33:54.067Z,70.59
2023-06-04T05:34:54.107Z,70.62
2023-06-04T05:35:53.157Z,70.78
2023-06-04T05:36:53.168Z,71.03
2023-06-04T05:37:54.190Z,71.38
2023-06-04T05:38:54.216Z,71.42
2023-06-04T05:39:53.200Z,71.51
2023-06-04T05:40:54.243Z,71.57
2023-06-04T05:41:54.211Z,71.81
2023-06-04T05:42:53.216Z,71.63
2023-06-04T05:43:53.222Z,71.82
2023-06-04T05:44:53.231Z,71.75
2023-06-04T05:45:54.262Z,71.67
2023-06-04T05:46:54.241Z,71.75
2023-06-04T05:47:53.293Z,71.95
2023-06-04T05:48:54.267Z,71.44
2023-06-04T05:49:54.296Z,71.93
2023-06-04T05:50:54.285Z,71.34
2023-06-04T05:51:54.299Z,71.00
2023-06-04T05:52:54.285Z,70.83
2023-06-04T05:53:54.297Z,70.87
2023-06-04T05:54:54.326Z,71.04
2023-06-04T05:55:53.341Z,71.17
2023-06-04T05:56:54.381Z,71.06
2023-06-04T05:57:54.380Z,71.40
2023-06-04T05:58:53.409Z,71.06
2023-06-04T05:59:54.443Z,71.13
2023-06-04T06:00:53.453Z,71.41
2023-06-04T06:01:54.561Z,71.33
2023-06-04T06:02:54.613Z,71.41
2023-06-04T06:03:53.731Z,71.19
2023-06-04T06:04:54.599Z,71.37
2023-06-04T06:05:53.645Z,71.20
2023-06-04T06:06:53.637Z,70.97
2023-06-04T06:07:53.742Z,70.49
2023-06-04T06:08:54.715Z,70.66
2023-06-04T06:09:54.742Z,70.47
2023-06-04T06:10:54.740Z,70.19
2023-06-04T06:11:54.766Z,69.77
2023-06-04T06:12:53.826Z,69.50
2023-06-04T06:13:54.842Z,69.91
2023-06-04T06:14:54.881Z,70.09
2023-06-04T06:15:54.953Z,69.99
2023-06-04T06:16:55.040Z,70.10
2023-06-04T06:17:54.932Z,70.10
2023-06-04T06:18:54.960Z,70.22
2023-06-04T06:19:53.978Z,70.36
2023-06-04T06:20:54.005Z,70.24
2023-06-04T06:21:55.029Z,69.78
2023-06-04T06:22:55.080Z,69.23
2023-06-04T06:23:55.246Z,68.81
2023-06-04T06:24:55.155Z,68.42
2023-06-04T06:25:55.183Z,67.91
2023-06-04T06:26:55.232Z,67.54
2023-06-04T06:27:54.249Z,67.42
2023-06-04T06:28:54.300Z,67.14
2023-06-04T06:29:55.370Z,66.94
2023-06-04T06:30:55.440Z,66.71
2023-06-04T06:31:55.432Z,66.95
2023-06-04T06:32:56.341Z,66.93
2023-06-04T06:33:54.496Z,67.40
2023-06-04T06:34:54.511Z,67.37
2023-06-04T06:35:55.560Z,67.66
2023-06-04T06:36:54.592Z,68.16
2023-06-04T08:56:56.628Z,53.38
2023-06-04T09:05:56.599Z,53.69
2023-06-04T09:06:55.569Z,53.21
2023-06-04T09:07:55.584Z,52.69
2023-06-04T09:08:58.303Z,52.75
2023-06-04T09:10:11.434Z,52.46
2023-06-04T09:10:56.537Z,52.07
2023-06-04T09:11:56.555Z,52.60
2023-06-04T09:12:56.533Z,52.69
2023-06-04T09:13:56.534Z,52.92
2023-06-04T09:14:56.542Z,52.30
2023-06-04T09:15:55.564Z,52.86
2023-06-04T09:16:56.583Z,52.90
2023-06-04T09:17:56.541Z,52.36
2023-06-04T09:18:55.493Z,52.01
2023-06-04T09:19:56.484Z,51.79
2023-06-04T09:20:55.494Z,51.83
2023-06-04T09:21:56.474Z,51.87
2023-06-04T09:22:55.468Z,51.71
2023-06-04T09:23:56.553Z,52.68
2023-06-04T09:24:55.489Z,52.96
2023-06-04T09:25:55.455Z,52.50
2023-06-04T09:26:55.432Z,52.32
2023-06-04T09:27:56.438Z,52.66
2023-06-04T09:28:55.418Z,52.49
2023-06-04T09:29:55.414Z,51.06
2023-06-04T09:30:56.467Z,51.95
2023-06-04T09:31:56.468Z,51.64
2023-06-04T09:32:56.466Z,51.62
2023-06-04T09:33:56.395Z,51.24
2023-06-04T09:34:55.403Z,49.82
2023-06-04T09:35:56.399Z,49.37
2023-06-04T09:36:56.399Z,49.27
2023-06-04T09:37:55.418Z,49.88
2023-06-04T09:38:56.399Z,50.13
2023-06-04T09:39:55.396Z,50.84
2023-06-04T09:40:55.381Z,51.52
2023-06-04T09:41:56.369Z,50.66
2023-06-04T09:42:56.708Z,50.02
2023-06-04T09:43:55.329Z,49.02
2023-06-04T09:44:56.346Z,49.18
2023-06-04T09:45:56.350Z,49.92
2023-06-04T09:46:55.471Z,49.67
2023-06-04T09:47:56.416Z,48.91
2023-06-04T09:48:56.358Z,48.67
2023-06-04T09:49:56.400Z,48.50
2023-06-04T09:50:55.425Z,47.91
2023-06-04T09:51:56.448Z,47.88
2023-06-04T09:52:56.461Z,48.16
2023-06-04T09:53:56.482Z,48.45
2023-06-04T09:54:56.521Z,47.95
2023-06-04T09:55:56.534Z,47.84
2023-06-04T09:56:56.514Z,48.01
2023-06-04T09:57:55.550Z,46.86
2023-06-04T09:58:55.588Z,46.87
2023-06-04T09:59:55.600Z,47.61
2023-06-04T10:00:56.662Z,47.68
2023-06-04T10:01:56.688Z,47.73
2023-06-04T10:02:56.810Z,47.98
2023-06-04T10:03:56.881Z,47.80
2023-06-04T10:04:56.797Z,48.02
2023-06-04T10:05:56.803Z,47.60
2023-06-04T10:06:55.852Z,47.69
2023-06-04T10:07:55.890Z,48.08
2023-06-04T10:08:55.883Z,48.14
2023-06-04T10:09:56.918Z,47.44
2023-06-04T10:10:56.968Z,47.24
2023-06-04T10:11:55.995Z,47.17
2023-06-04T10:12:56.992Z,47.35
2023-06-04T10:13:56.041Z,47.13
2023-06-04T10:14:57.061Z,47.50
2023-06-04T10:15:57.134Z,47.40
2023-06-04T10:16:56.255Z,47.39
2023-06-04T10:17:57.221Z,46.58
2023-06-04T10:18:56.226Z,46.68
2023-06-04T10:19:57.261Z,46.11
2023-06-04T10:20:57.413Z,45.53
2023-06-04T10:21:57.296Z,45.68
2023-06-04T10:22:57.343Z,46.53
2023-06-04T10:23:57.386Z,45.62
2023-06-04T10:24:56.408Z,45.76
2023-06-04T10:25:56.440Z,45.51
2023-06-04T10:26:57.489Z,45.24
2023-06-04T10:27:57.506Z,44.78
2023-06-04T10:28:57.532Z,45.12
2023-06-04T10:29:56.586Z,45.13
2023-06-04T10:30:56.556Z,45.30
2023-06-04T10:31:56.727Z,45.00
2023-06-04T10:32:57.678Z,45.13
2023-06-04T10:33:56.652Z,44.24
2023-06-04T10:34:57.702Z,43.13
2023-06-04T10:35:56.759Z,43.19
2023-06-04T10:36:57.787Z,43.60
2023-06-04T10:37:56.814Z,44.62
2023-06-04T10:38:57.791Z,44.08
2023-06-04T10:39:57.865Z,44.38
2023-06-04T10:40:57.849Z,43.24
2023-06-04T10:41:57.884Z,43.09
2023-06-04T10:42:57.909Z,43.29
2023-06-04T10:43:57.985Z,43.48
2023-06-04T10:44:58.217Z,43.30
2023-06-04T10:45:58.086Z,43.22
2023-06-04T10:46:58.020Z,43.10
2023-06-04T10:47:58.058Z,43.48
2023-06-04T10:48:58.089Z,43.10
2023-06-04T10:49:57.121Z,43.29
2023-06-04T10:50:57.168Z,43.15
2023-06-04T10:51:58.186Z,43.10
2023-06-04T10:52:58.249Z,42.92
2023-06-04T10:53:58.270Z,42.91
2023-06-04T10:54:58.284Z,42.77
2023-06-04T10:55:57.331Z,42.47
2023-06-04T10:56:58.388Z,42.18
2023-06-04T10:57:58.378Z,41.88
2023-06-04T10:58:58.431Z,42.03
2023-06-04T10:59:58.548Z,42.20
2023-06-04T11:00:58.503Z,41.78
2023-06-04T11:01:58.627Z,41.30
2023-06-04T11:02:58.575Z,40.49
2023-06-04T11:03:57.601Z,41.42
2023-06-04T11:04:57.592Z,40.86
2023-06-04T11:05:57.617Z,41.04
2023-06-04T11:06:57.629Z,41.05
2023-06-04T11:07:58.645Z,40.68
2023-06-04T11:08:58.691Z,40.65
2023-06-04T11:09:57.719Z,40.07
2023-06-04T11:10:58.760Z,40.23
2023-06-04T11:11:58.789Z,40.89
2023-06-04T11:12:58.824Z,41.08
2023-06-04T11:13:58.836Z,40.95
2023-06-04T11:14:57.871Z,41.61
2023-06-04T11:15:58.915Z,40.89
2023-06-04T11:16:58.918Z,41.18
2023-06-04T11:17:58.963Z,40.61
2023-06-04T11:18:58.969Z,40.34
2023-06-04T11:19:59.008Z,40.28
2023-06-04T11:20:59.024Z,40.27
2023-06-04T11:21:59.053Z,38.00
2023-06-04T11:22:58.069Z,38.41
2023-06-04T11:23:59.095Z,37.45
2023-06-04T11:24:59.094Z,37.26
2023-06-04T11:25:58.149Z,37.16
2023-06-04T11:27:58.169Z,38.66
2023-06-04T11:28:58.192Z,38.68
2023-06-04T11:29:59.229Z,38.33
2023-06-04T11:30:59.307Z,37.16
2023-06-04T11:31:59.345Z,37.18
2023-06-04T11:32:59.346Z,37.66
2023-06-04T11:33:59.351Z,38.31
2023-06-04T11:34:58.375Z,36.66
2023-06-04T11:35:58.451Z,36.98
2023-06-04T11:36:59.475Z,35.78
2023-06-04T11:37:59.508Z,36.51
2023-06-04T11:38:59.532Z,36.30
2023-06-04T11:39:59.605Z,37.81
2023-06-04T11:40:58.576Z,36.38
2023-06-04T11:41:58.608Z,37.09
2023-06-04T11:42:58.662Z,36.14
2023-06-04T11:43:59.659Z,36.00
2023-06-04T11:44:58.698Z,36.70
2023-06-04T11:45:59.734Z,36.87
2023-06-04T11:46:59.753Z,36.06
2023-06-04T11:47:59.880Z,36.19
2023-06-04T11:48:59.973Z,35.86
2023-06-04T11:49:59.890Z,35.73
2023-06-04T11:50:59.872Z,35.68
2023-06-04T11:51:59.906Z,35.58
2023-06-04T11:52:58.958Z,36.62
2023-06-04T11:53:59.940Z,36.54
2023-06-04T11:54:59.978Z,36.79
2023-06-04T11:55:58.999Z,37.07
2023-06-04T11:57:00.029Z,36.90
2023-06-04T11:58:00.040Z,37.07
2023-06-04T11:59:00.142Z,36.31
2023-06-04T12:00:00.187Z,35.20
2023-06-04T12:01:00.169Z,35.34
2023-06-04T12:01:59.189Z,35.23
2023-06-04T12:03:00.339Z,35.53
2023-06-04T12:04:00.248Z,36.13
2023-06-04T12:05:00.293Z,36.83
2023-06-04T12:06:00.432Z,36.69
2023-06-04T12:07:00.362Z,37.09
2023-06-04T12:08:00.409Z,36.93
2023-06-04T12:09:00.455Z,37.16
2023-06-04T12:09:59.411Z,36.19
2023-06-04T12:10:59.427Z,36.46
2023-06-04T12:12:00.462Z,36.86
2023-06-04T12:13:00.510Z,36.79
2023-06-04T12:14:00.513Z,36.54
2023-06-04T12:15:00.632Z,36.58
2023-06-04T12:16:00.564Z,36.12
2023-06-04T12:16:59.661Z,35.99
2023-06-04T12:17:59.714Z,36.23
2023-06-04T12:19:00.629Z,36.79
2023-06-04T12:20:00.688Z,36.82
2023-06-04T12:21:00.738Z,36.51
2023-06-04T12:21:59.722Z,36.35
2023-06-04T12:23:00.739Z,36.27
2023-06-04T12:24:00.860Z,36.55
2023-06-04T12:25:00.839Z,36.57
2023-06-04T12:26:00.954Z,37.08
2023-06-04T12:27:00.897Z,37.36
2023-06-04T12:27:59.934Z,37.43
2023-06-04T12:29:00.975Z,37.35
2023-06-04T12:29:59.982Z,36.30
2023-06-04T12:31:00.049Z,36.85
2023-06-04T12:32:01.009Z,36.87
2023-06-04T12:33:01.133Z,37.15
2023-06-04T12:34:00.123Z,36.73
2023-06-04T12:35:01.127Z,36.59
2023-06-04T12:36:01.138Z,36.70
2023-06-04T12:37:01.169Z,35.86
2023-06-04T12:38:00.220Z,36.48
2023-06-04T12:39:01.283Z,36.22
2023-06-04T12:40:00.289Z,36.35
2023-06-04T12:41:01.303Z,36.36
2023-06-04T12:42:00.322Z,36.28
2023-06-04T12:43:00.329Z,36.16
2023-06-04T12:44:01.373Z,35.88
2023-06-04T12:45:01.382Z,36.42
2023-06-04T12:46:01.416Z,36.69
2023-06-04T12:47:00.901Z,36.48
2023-06-04T12:48:00.590Z,36.13
2023-06-04T12:49:00.537Z,36.13
2023-06-04T12:50:01.594Z,36.11
2023-06-04T12:51:00.634Z,35.92
2023-06-04T12:52:01.652Z,35.94
2023-06-04T12:53:01.652Z,36.03
2023-06-04T12:54:01.680Z,36.02
2023-06-04T12:55:01.705Z,35.44
2023-06-04T12:56:01.708Z,35.72
2023-06-04T12:57:01.743Z,35.93
2023-06-04T12:58:01.764Z,36.03
2023-06-04T12:59:01.797Z,36.36
2023-06-04T13:00:00.837Z,36.38
2023-06-04T13:01:01.851Z,36.13
2023-06-04T13:02:00.880Z,36.05
2023-06-04T13:03:00.973Z,36.13
2023-06-04T13:04:01.024Z,35.94
2023-06-04T13:05:00.932Z,35.73
2023-06-04T13:06:01.964Z,35.62
2023-06-04T13:07:01.981Z,35.59
2023-06-04T13:08:01.029Z,35.63
2023-06-04T13:09:02.062Z,35.78
2023-06-04T13:10:02.151Z,35.51
2023-06-04T13:11:02.091Z,34.97
2023-06-04T13:12:02.128Z,35.35
2023-06-04T13:13:02.161Z,35.43
2023-06-04T13:14:02.194Z,35.59
2023-06-04T13:15:02.252Z,35.87
2023-06-04T13:16:01.311Z,36.16
2023-06-04T13:17:07.335Z,35.62
2023-06-04T13:18:02.369Z,35.71
2023-06-04T13:19:02.279Z,35.93
2023-06-04T13:20:02.312Z,35.75
2023-06-04T13:21:02.263Z,36.32
2023-06-04T13:22:01.262Z,36.22
2023-06-04T13:23:02.800Z,36.08
2023-06-04T13:24:02.262Z,35.92
2023-06-04T13:25:02.291Z,35.88
2023-06-04T13:26:02.222Z,35.75
2023-06-04T13:27:01.237Z,35.84
2023-06-04T13:28:02.234Z,35.67
2023-06-04T13:29:02.198Z,36.04
2023-06-04T13:30:01.239Z,35.87
2023-06-04T13:31:02.211Z,35.52
2023-06-04T13:32:02.250Z,35.83
2023-06-04T13:33:02.226Z,35.76
2023-06-04T13:34:06.471Z,36.26
2023-06-04T13:35:02.216Z,35.99
2023-06-04T13:36:02.201Z,35.80
2023-06-04T13:37:01.205Z,35.97
2023-06-04T13:38:02.199Z,35.90
2023-06-04T13:39:02.550Z,36.47
2023-06-04T13:40:02.172Z,36.38
2023-06-04T13:41:02.158Z,36.30
2023-06-04T13:42:02.178Z,35.83
2023-06-04T13:43:01.151Z,35.66
2023-06-04T13:44:01.138Z,36.09
2023-06-04T13:45:01.128Z,35.62
2023-06-04T13:46:01.201Z,35.48
2023-06-04T13:47:01.108Z,35.84
2023-06-04T13:48:01.112Z,35.55
2023-06-04T13:49:02.125Z,35.53
2023-06-04T13:50:02.141Z,35.60
2023-06-04T13:51:02.153Z,35.68
2023-06-04T13:52:02.203Z,35.21
2023-06-04T13:53:02.260Z,35.25
2023-06-04T13:54:01.269Z,35.16
2023-06-04T13:55:01.310Z,35.12
2023-06-04T13:56:02.331Z,34.80
2023-06-04T13:57:01.379Z,34.88
2023-06-04T13:58:02.397Z,35.13
2023-06-04T13:59:01.502Z,35.38
2023-06-04T14:00:02.519Z,35.64
2023-06-04T14:01:02.567Z,35.83
2023-06-04T14:02:02.614Z,35.63
2023-06-04T14:03:02.694Z,35.69
2023-06-04T14:04:01.758Z,35.62
2023-06-04T14:05:02.592Z,35.04
2023-06-04T14:06:01.654Z,35.05
2023-06-04T14:07:02.699Z,35.63
2023-06-04T14:08:02.729Z,35.53
2023-06-04T14:09:04.279Z,35.30
2023-06-04T14:10:02.880Z,35.26
2023-06-04T14:11:02.907Z,35.43
2023-06-04T14:12:01.958Z,35.52
2023-06-04T14:13:02.970Z,35.51
2023-06-04T14:14:01.957Z,35.61
2023-06-04T14:15:03.022Z,35.43
2023-06-04T14:16:03.090Z,35.11
2023-06-04T14:17:03.072Z,35.28
2023-06-04T14:18:02.120Z,35.48
2023-06-04T14:19:02.113Z,35.58
2023-06-04T14:20:03.156Z,35.87
2023-06-04T14:21:03.205Z,35.64
2023-06-04T14:22:02.191Z,35.44
2023-06-04T14:23:02.214Z,35.62
2023-06-04T14:24:03.390Z,35.63
2023-06-04T14:25:02.285Z,35.97
2023-06-04T14:26:03.308Z,36.16
2023-06-04T14:27:02.349Z,35.85
2023-06-04T14:28:03.346Z,35.72
2023-06-04T14:29:03.386Z,35.48
2023-06-04T14:30:03.446Z,35.86
2023-06-04T14:31:02.513Z,35.75
2023-06-04T14:32:03.534Z,36.16
2023-06-04T14:33:03.562Z,36.20
2023-06-04T14:34:02.499Z,36.10
2023-06-04T14:35:03.536Z,36.39
2023-06-04T14:36:02.566Z,36.48
2023-06-04T14:37:03.612Z,36.72
2023-06-04T14:38:02.665Z,37.22
2023-06-04T14:39:02.691Z,37.48
2023-06-04T14:40:02.716Z,36.47
2023-06-04T14:41:02.778Z,35.98
2023-06-04T14:42:03.785Z,35.89
2023-06-04T14:43:03.788Z,35.89
2023-06-04T14:44:02.815Z,35.64
2023-06-04T14:45:03.805Z,35.41
2023-06-04T14:46:02.852Z,35.58
2023-06-04T14:47:02.858Z,34.70
2023-06-04T14:48:14.061Z,34.96
2023-06-04T14:49:03.894Z,35.24
2023-06-04T14:50:03.918Z,34.91
2023-06-04T14:51:02.887Z,34.80
2023-06-04T14:52:03.882Z,34.75
2023-06-04T14:53:02.860Z,35.09
2023-06-04T14:54:02.851Z,35.10
2023-06-04T14:55:03.876Z,35.09
2023-06-04T14:56:02.851Z,35.26
2023-06-04T14:57:03.852Z,34.76
2023-06-04T14:58:03.901Z,35.31
2023-06-04T14:59:03.842Z,35.11
2023-06-04T15:00:02.812Z,34.40
2023-06-04T15:01:03.792Z,34.59
2023-06-04T15:02:03.890Z,34.78
2023-06-04T15:03:02.913Z,34.94
2023-06-04T15:04:03.934Z,34.53
2023-06-04T15:05:02.779Z,34.99
2023-06-04T15:06:14.811Z,34.82
2023-06-04T15:07:03.774Z,34.73
2023-06-04T15:08:03.768Z,34.88
2023-06-04T15:09:02.741Z,34.71
2023-06-04T15:10:03.758Z,34.43
2023-06-04T15:11:03.772Z,34.38
2023-06-04T15:12:05.166Z,34.35
2023-06-04T15:13:02.931Z,34.34
2023-06-04T15:14:03.935Z,34.22
2023-06-04T15:15:03.964Z,34.58
2023-06-04T15:16:03.990Z,34.56
2023-06-04T15:17:04.031Z,34.40
2023-06-04T15:18:03.135Z,34.31
2023-06-04T15:19:03.206Z,34.10
2023-06-04T15:20:04.175Z,34.18
2023-06-04T15:21:03.171Z,33.72